Time;durP1;ratioP1;P1;durP2;ratioP2;P2;SDS_P1;SDS_P2;PMS_P1;PMS_P2;Temp;Humidity;BMP_temperature;BMP_pressure;BME280_temperature;BME280_humidity;BME280_pressure;Samples;Min_cycle;Max_cycle;Signal;HPM_P1;HPM_P2
2023/04/14 00:01:41;;;;;;;1.60;1.00;;;20.30;63.00;;;;;;5054819;28;20801;-93
2023/04/14 00:04:08;;;;;;;1.60;1.00;;;20.30;63.00;;;;;;5053837;28;20441;-89
2023/04/14 00:06:35;;;;;;;2.77;1.20;;;20.30;63.00;;;;;;5053520;28;20449;-91
2023/04/14 00:09:02;;;;;;;1.40;1.07;;;20.30;62.90;;;;;;5053544;28;20483;-89
2023/04/14 00:11:28;;;;;;;2.20;1.00;;;20.30;63.00;;;;;;5053689;28;20847;-93
2023/04/14 00:13:57;;;;;;;1.73;0.90;;;20.40;64.00;;;;;;5053501;28;20932;-90
2023/04/14 00:16:24;;;;;;;1.20;1.00;;;20.40;63.10;;;;;;5053267;28;21069;-94
2023/04/14 00:18:50;;;;;;;1.00;0.80;;;20.30;63.00;;;;;;5053290;28;20452;-89
2023/04/14 00:21:17;;;;;;;1.30;1.10;;;20.30;63.10;;;;;;5053479;28;20878;-89
2023/04/14 00:23:44;;;;;;;1.60;1.00;;;20.30;63.10;;;;;;5054302;28;20467;-94
2023/04/14 00:26:11;;;;;;;1.30;0.80;;;20.30;63.10;;;;;;5053704;28;20498;-94
2023/04/14 00:28:38;;;;;;;2.03;1.00;;;20.30;63.10;;;;;;5053196;28;21051;-94
2023/04/14 00:31:07;;;;;;;1.20;1.00;;;20.40;63.10;;;;;;5053789;28;20484;-90
2023/04/14 00:33:33;;;;;;;1.80;0.90;;;20.30;63.10;;;;;;5053719;28;20468;-94
2023/04/14 00:36:00;;;;;;;1.50;1.10;;;20.30;63.20;;;;;;5055072;28;20484;-94
2023/04/14 00:38:27;;;;;;;1.63;1.07;;;20.20;63.00;;;;;;5057009;28;20984;-89
2023/04/14 00:40:54;;;;;;;1.00;0.80;;;20.30;63.10;;;;;;5057766;28;20445;-94
2023/04/14 00:43:21;;;;;;;1.67;0.97;;;20.20;63.00;;;;;;5057207;28;20446;-94
2023/04/14 00:45:51;;;;;;;1.20;0.90;;;20.30;63.90;;;;;;5056861;28;20442;-94
2023/04/14 00:48:19;;;;;;;1.30;1.00;;;20.20;63.00;;;;;;5057013;28;20772;-93
2023/04/14 00:50:47;;;;;;;1.20;1.00;;;20.20;63.90;;;;;;5056960;28;20437;-90
2023/04/14 00:53:14;;;;;;;2.13;1.00;;;20.20;63.00;;;;;;5056668;28;20448;-94
2023/04/14 00:55:42;;;;;;;1.40;1.00;;;20.20;63.00;;;;;;5056805;28;20487;-94
2023/04/14 00:58:09;;;;;;;1.60;1.10;;;20.20;63.10;;;;;;5056773;28;20466;-90
2023/04/14 01:00:37;;;;;;;3.00;0.90;;;20.20;63.00;;;;;;5056972;28;20447;-90
2023/04/14 01:03:05;;;;;;;1.30;1.00;;;20.20;63.10;;;;;;5056772;28;20537;-91
2023/04/14 01:05:34;;;;;;;1.50;0.90;;;20.20;63.00;;;;;;5057249;28;20445;-94
2023/04/14 01:08:02;;;;;;;1.10;0.80;;;20.20;63.10;;;;;;5057339;28;20449;-94
2023/04/14 01:10:37;;;;;;;2.37;0.90;;;20.20;63.00;;;;;;5056248;28;20446;-93
2023/04/14 01:13:16;;;;;;;2.17;1.07;;;20.30;63.10;;;;;;5056504;28;20512;-92
2023/04/14 01:15:50;;;;;;;1.20;0.90;;;20.30;63.20;;;;;;5056652;28;20476;-93
2023/04/14 01:18:26;;;;;;;1.20;1.00;;;20.20;63.00;;;;;;5056637;28;20425;-93
2023/04/14 01:20:59;;;;;;;1.30;0.90;;;20.20;63.00;;;;;;5056461;28;20425;-94
2023/04/14 01:23:27;;;;;;;1.60;1.00;;;20.20;63.90;;;;;;5057641;28;20495;-90
2023/04/14 01:26:18;;;;;;;2.10;1.37;;;20.20;63.00;;;;;;5056760;28;20536;-95
2023/04/14 01:29:21;;;;;;;2.17;0.90;;;20.20;63.00;;;;;;5056527;28;20477;-95
2023/04/14 01:32:00;;;;;;;2.13;0.90;;;20.20;63.10;;;;;;5056320;28;20433;-94
2023/04/14 01:34:34;;;;;;;1.20;1.00;;;20.20;63.10;;;;;;5056367;28;20827;-89
2023/04/14 01:37:06;;;;;;;1.30;1.20;;;20.10;62.90;;;;;;5056216;28;20772;-90
2023/04/14 01:39:37;;;;;;;2.17;1.00;;;20.20;63.20;;;;;;5056220;28;20487;-89
2023/04/14 01:42:09;;;;;;;1.47;1.10;;;20.10;63.00;;;;;;5056223;28;20813;-93
2023/04/14 01:44:37;;;;;;;1.33;1.10;;;20.10;63.00;;;;;;5056079;28;20896;-89
2023/04/14 01:47:08;;;;;;;1.30;0.97;;;20.20;63.90;;;;;;5054928;28;20445;-89
2023/04/14 01:49:39;;;;;;;1.83;1.37;;;20.20;63.10;;;;;;5055737;28;20909;-93
2023/04/14 01:52:09;;;;;;;2.00;1.10;;;20.10;63.00;;;;;;5055593;28;20430;-89
2023/04/14 01:54:38;;;;;;;1.40;1.00;;;20.10;62.90;;;;;;5055982;28;20441;-89
2023/04/14 01:57:07;;;;;;;1.47;1.03;;;20.10;62.90;;;;;;5055747;28;20456;-90
2023/04/14 01:59:37;;;;;;;1.40;1.00;;;20.10;62.90;;;;;;5055792;28;20452;-93
2023/04/14 02:02:08;;;;;;;1.60;1.10;;;20.10;63.00;;;;;;5055888;28;20441;-92
2023/04/14 02:04:37;;;;;;;1.33;0.80;;;20.10;63.00;;;;;;5056391;28;20927;-88
2023/04/14 02:07:06;;;;;;;1.10;0.90;;;20.10;63.10;;;;;;5055594;28;20456;-94
2023/04/14 02:09:34;;;;;;;1.27;0.97;;;20.20;63.20;;;;;;5055665;28;20441;-94
2023/04/14 02:12:02;;;;;;;1.63;1.00;;;20.10;63.90;;;;;;5056347;28;20540;-94
2023/04/14 02:14:31;;;;;;;1.10;0.83;;;20.10;63.10;;;;;;5055430;28;20433;-95
2023/04/14 02:16:59;;;;;;;1.30;1.00;;;20.10;63.00;;;;;;5055813;28;20491;-88
2023/04/14 02:19:28;;;;;;;1.00;0.83;;;20.10;63.10;;;;;;5055516;28;20452;-90
2023/04/14 02:21:56;;;;;;;1.13;0.90;;;20.10;63.00;;;;;;5056750;28;20456;-90
2023/04/14 02:24:23;;;;;;;1.07;0.77;;;20.10;63.10;;;;;;5062173;28;20429;-89
2023/04/14 02:26:56;;;;;;;1.13;0.87;;;20.20;63.20;;;;;;5074230;28;20505;-89
2023/04/14 02:29:25;;;;;;;1.17;0.80;;;20.10;63.10;;;;;;5062830;28;20836;-90
2023/04/14 02:31:59;;;;;;;1.40;0.90;;;20.10;63.10;;;;;;5055146;28;20445;-90
2023/04/14 02:34:33;;;;;;;1.40;1.10;;;20.10;63.10;;;;;;5055234;28;20559;-95
2023/04/14 02:37:03;;;;;;;1.83;1.10;;;20.20;63.20;;;;;;5054626;28;20469;-95
2023/04/14 02:39:36;;;;;;;1.13;0.87;;;20.10;63.10;;;;;;5054743;28;20430;-90
2023/04/14 02:42:11;;;;;;;1.30;0.93;;;20.20;63.30;;;;;;5055039;28;20559;-91
2023/04/14 02:44:43;;;;;;;1.57;1.13;;;20.10;63.10;;;;;;5054756;28;20459;-90
2023/04/14 02:47:13;;;;;;;1.10;0.90;;;20.10;63.10;;;;;;5055125;28;20449;-90
2023/04/14 02:49:44;;;;;;;1.30;1.00;;;20.10;63.10;;;;;;5054862;28;20476;-90
2023/04/14 02:52:13;;;;;;;1.43;1.00;;;20.10;63.10;;;;;;5054650;28;20452;-94
2023/04/14 02:54:42;;;;;;;1.30;0.90;;;20.10;63.10;;;;;;5054475;28;20449;-90
2023/04/14 02:57:09;;;;;;;1.30;1.00;;;20.10;63.10;;;;;;5054122;28;20527;-90
2023/04/14 02:59:37;;;;;;;1.93;1.10;;;20.10;63.20;;;;;;5054228;28;20465;-89
2023/04/14 03:02:05;;;;;;;1.37;1.10;;;20.00;63.00;;;;;;5054243;28;20451;-95
2023/04/14 03:04:33;;;;;;;1.30;0.87;;;20.00;63.10;;;;;;5056552;28;20441;-89
2023/04/14 03:07:05;;;;;;;1.47;1.10;;;20.00;63.10;;;;;;5058069;28;20472;-90
2023/04/14 03:09:33;;;;;;;1.40;0.83;;;20.10;63.10;;;;;;5059300;28;20456;-89
2023/04/14 03:12:02;;;;;;;1.30;0.90;;;20.10;63.20;;;;;;5065906;28;20445;-89
2023/04/14 03:14:30;;;;;;;1.10;0.90;;;20.00;63.00;;;;;;5054253;28;20939;-89
2023/04/14 03:16:58;;;;;;;1.30;0.80;;;20.10;63.20;;;;;;5054858;28;20508;-89
2023/04/14 03:19:27;;;;;;;1.03;0.83;;;20.00;63.00;;;;;;5054348;28;20541;-93
2023/04/14 03:21:54;;;;;;;1.30;1.10;;;20.00;63.10;;;;;;5054039;28;20537;-89
2023/04/14 03:24:26;;;;;;;1.50;1.10;;;20.00;63.10;;;;;;5055198;28;21009;-89
2023/04/14 03:26:56;;;;;;;2.30;0.80;;;20.00;63.10;;;;;;5053742;28;20552;-88
2023/04/14 03:29:25;;;;;;;2.07;1.00;;;20.00;63.20;;;;;;5054114;28;20476;-89
2023/04/14 03:31:54;;;;;;;1.10;0.80;;;20.00;63.20;;;;;;5054096;28;20445;-94
2023/04/14 03:34:22;;;;;;;1.00;0.70;;;20.00;63.10;;;;;;5053797;28;20438;-89
2023/04/14 03:36:50;;;;;;;2.90;1.00;;;20.00;63.10;;;;;;5053924;28;20918;-89
2023/04/14 03:39:18;;;;;;;1.37;1.07;;;20.00;63.10;;;;;;5053493;28;20545;-93
2023/04/14 03:41:50;;;;;;;1.50;0.90;;;20.00;63.50;;;;;;5053686;28;20452;-94
2023/04/14 03:44:18;;;;;;;2.03;1.00;;;20.00;63.70;;;;;;5054370;28;20426;-89
2023/04/14 03:46:45;;;;;;;1.30;1.10;;;20.00;63.20;;;;;;5053277;28;20532;-89
2023/04/14 03:49:16;;;;;;;1.20;0.93;;;20.00;63.10;;;;;;5053865;28;20464;-93
2023/04/14 03:51:46;;;;;;;1.63;0.90;;;20.00;64.10;;;;;;5054035;28;20452;-94
2023/04/14 03:54:16;;;;;;;1.40;1.10;;;20.00;63.30;;;;;;5053871;28;20483;-94
2023/04/14 03:56:46;;;;;;;1.20;0.97;;;20.00;63.20;;;;;;5054744;28;20863;-89
2023/04/14 03:59:17;;;;;;;1.27;1.00;;;20.00;63.30;;;;;;5053555;28;20888;-89
2023/04/14 04:01:45;;;;;;;1.40;0.90;;;20.00;63.20;;;;;;5054290;28;20441;-89
2023/04/14 04:04:13;;;;;;;1.57;1.13;;;20.00;63.30;;;;;;5053411;28;20456;-90
2023/04/14 04:06:40;;;;;;;1.20;0.83;;;20.00;63.20;;;;;;5054006;28;20472;-93
2023/04/14 04:09:11;;;;;;;1.30;1.00;;;19.90;63.10;;;;;;5053542;28;20527;-90
2023/04/14 04:11:39;;;;;;;1.30;0.93;;;20.00;63.20;;;;;;5056710;28;20959;-90
2023/04/14 04:14:08;;;;;;;1.13;1.03;;;19.90;63.10;;;;;;5057515;28;20445;-90
2023/04/14 04:16:40;;;;;;;1.23;1.00;;;19.90;63.20;;;;;;5057342;28;20492;-90
2023/04/14 04:19:07;;;;;;;1.10;0.80;;;20.00;63.20;;;;;;5057368;28;20445;-89
2023/04/14 04:21:38;;;;;;;1.10;0.80;;;19.90;63.10;;;;;;5059455;28;20795;-90
2023/04/14 04:24:07;;;;;;;1.20;0.90;;;19.90;63.10;;;;;;5058969;28;20438;-90
2023/04/14 04:26:34;;;;;;;1.13;0.93;;;19.90;63.20;;;;;;5057520;28;20451;-90
2023/04/14 04:29:02;;;;;;;1.30;0.90;;;19.90;63.20;;;;;;5057569;28;20473;-94
2023/04/14 04:31:32;;;;;;;1.20;0.90;;;20.10;63.40;;;;;;5057965;28;20460;-90
2023/04/14 04:34:01;;;;;;;1.20;1.07;;;19.90;63.10;;;;;;5059560;28;20846;-90
2023/04/14 04:36:30;;;;;;;1.60;1.00;;;19.90;63.20;;;;;;5058409;28;20849;-90
2023/04/14 04:38:57;;;;;;;3.20;1.10;;;19.90;63.20;;;;;;5057860;28;20444;-89
2023/04/14 04:41:25;;;;;;;1.30;1.07;;;19.90;63.20;;;;;;5056997;28;20448;-89
2023/04/14 04:43:52;;;;;;;1.40;1.00;;;19.90;63.20;;;;;;5057162;28;20800;-90
2023/04/14 04:46:42;;;;;;;1.33;1.07;;;19.90;63.20;;;;;;5057114;28;20441;-95
2023/04/14 04:49:10;;;;;;;1.30;1.10;;;19.90;63.20;;;;;;5057531;28;20465;-91
2023/04/14 04:51:37;;;;;;;1.10;0.90;;;20.00;63.30;;;;;;5057278;28;20447;-89
2023/04/14 04:54:05;;;;;;;1.93;0.90;;;19.90;63.20;;;;;;5056814;28;20448;-94
2023/04/14 04:56:32;;;;;;;1.30;1.10;;;19.90;63.20;;;;;;5057586;28;20515;-89
2023/04/14 04:58:59;;;;;;;2.03;1.10;;;19.90;63.30;;;;;;5069143;28;20463;-89
2023/04/14 05:01:26;;;;;;;2.03;1.10;;;19.90;63.30;;;;;;5074109;28;20480;-90
2023/04/14 05:03:53;;;;;;;1.20;0.90;;;19.90;63.30;;;;;;5059572;28;20452;-90
2023/04/14 05:06:21;;;;;;;1.20;1.00;;;19.90;64.10;;;;;;5056267;28;20448;-93
2023/04/14 05:08:50;;;;;;;1.23;1.03;;;19.90;63.30;;;;;;5056272;28;20446;-90
2023/04/14 05:11:17;;;;;;;1.40;0.80;;;19.90;63.20;;;;;;5056585;28;20954;-89
2023/04/14 05:13:44;;;;;;;1.80;1.20;;;19.90;63.30;;;;;;5056736;28;20541;-90
2023/04/14 05:16:13;;;;;;;1.73;1.27;;;19.90;63.30;;;;;;5055924;28;20472;-90
2023/04/14 05:18:40;;;;;;;2.00;1.07;;;19.90;63.30;;;;;;5056830;28;20446;-90
2023/04/14 05:21:09;;;;;;;1.10;0.90;;;19.90;63.30;;;;;;5056406;28;20950;-90
2023/04/14 05:23:39;;;;;;;1.27;0.90;;;19.90;64.10;;;;;;5056219;28;20929;-90
2023/04/14 05:26:06;;;;;;;1.30;0.97;;;19.90;63.20;;;;;;5056003;28;20449;-94
2023/04/14 05:28:33;;;;;;;1.20;1.00;;;19.90;63.30;;;;;;5055706;28;20484;-90
2023/04/14 05:31:00;;;;;;;1.33;0.80;;;19.90;63.30;;;;;;5055984;28;20437;-90
2023/04/14 05:33:27;;;;;;;2.37;1.10;;;20.00;63.50;;;;;;5056052;28;20445;-89
2023/04/14 05:35:54;;;;;;;1.10;0.90;;;19.90;63.30;;;;;;5055951;28;20524;-89
2023/04/14 05:38:21;;;;;;;1.20;0.90;;;19.90;63.30;;;;;;5056724;28;20840;-89
2023/04/14 05:40:50;;;;;;;1.13;0.90;;;20.00;63.40;;;;;;5056553;28;20528;-90
2023/04/14 05:43:17;;;;;;;1.80;1.20;;;19.90;63.40;;;;;;5055977;28;20433;-94
2023/04/14 05:45:45;;;;;;;1.53;0.90;;;19.90;63.40;;;;;;5055446;28;20484;-94
2023/04/14 05:48:12;;;;;;;1.00;0.80;;;19.90;63.40;;;;;;5057296;28;20504;-89
2023/04/14 05:50:39;;;;;;;1.30;0.90;;;19.80;63.30;;;;;;5055881;28;20437;-88
2023/04/14 05:53:07;;;;;;;1.10;0.90;;;19.90;63.40;;;;;;5057134;28;20441;-93
2023/04/14 05:55:33;;;;;;;1.87;0.97;;;19.90;63.50;;;;;;5055562;28;20445;-89
2023/04/14 05:58:02;;;;;;;1.90;1.30;;;19.90;63.40;;;;;;5055480;28;20497;-92
2023/04/14 06:00:29;;;;;;;1.30;0.90;;;19.90;63.40;;;;;;5055416;28;20532;-88
2023/04/14 06:02:56;;;;;;;1.03;0.70;;;19.90;63.50;;;;;;5056545;28;20453;-92
2023/04/14 06:05:24;;;;;;;1.10;0.90;;;19.90;63.50;;;;;;5056179;28;20445;-93
2023/04/14 06:07:50;;;;;;;1.13;1.00;;;19.90;63.50;;;;;;5055709;28;20453;-90
2023/04/14 06:10:17;;;;;;;1.20;1.00;;;20.00;63.60;;;;;;5056009;28;20541;-93
2023/04/14 06:12:44;;;;;;;1.10;0.90;;;19.90;63.70;;;;;;5055198;28;20445;-93
2023/04/14 06:15:13;;;;;;;3.73;1.23;;;19.90;63.80;;;;;;5055039;28;20941;-94
2023/04/14 06:17:40;;;;;;;1.10;0.83;;;19.90;63.80;;;;;;5055692;28;20493;-93
2023/04/14 06:20:37;;;;;;;1.50;1.00;;;19.90;63.80;;;;;;5055146;28;20475;-89
2023/04/14 06:23:04;;;;;;;1.10;0.90;;;19.90;63.70;;;;;;5055189;28;20863;-89
2023/04/14 06:25:32;;;;;;;1.30;0.90;;;20.00;63.90;;;;;;5054913;28;20445;-93
2023/04/14 06:28:02;;;;;;;1.70;1.10;;;19.90;63.80;;;;;;5054758;28;20503;-88
2023/04/14 06:30:31;;;;;;;1.60;1.50;;;19.90;63.80;;;;;;5055598;28;20532;-92
2023/04/14 06:32:57;;;;;;;1.40;1.20;;;20.00;63.70;;;;;;5059833;28;20451;-93
2023/04/14 06:35:24;;;;;;;1.30;0.97;;;20.00;63.60;;;;;;5058911;28;20441;-92
2023/04/14 06:37:51;;;;;;;2.17;1.20;;;20.00;63.70;;;;;;5061329;28;20632;-91
2023/04/14 06:40:47;;;;;;;1.17;1.00;;;20.00;63.90;;;;;;5058998;28;20449;-91
2023/04/14 06:43:16;;;;;;;1.10;0.80;;;20.00;64.10;;;;;;5063114;28;20434;-96
2023/04/14 06:45:45;;;;;;;1.27;1.17;;;20.00;64.20;;;;;;5058403;28;20446;-93
2023/04/14 06:48:12;;;;;;;1.50;1.30;;;20.10;64.30;;;;;;5062753;28;20461;-94
2023/04/14 06:50:39;;;;;;;1.70;1.20;;;20.10;63.70;;;;;;5063401;28;20445;-90
2023/04/14 06:53:08;;;;;;;1.63;1.07;;;20.10;63.70;;;;;;5056810;28;20445;-91
2023/04/14 06:55:35;;;;;;;1.50;1.40;;;20.10;64.00;;;;;;5054429;28;20524;-91
2023/04/14 06:58:02;;;;;;;1.40;0.90;;;20.10;64.70;;;;;;5053812;28;20990;-88
2023/04/14 07:00:29;;;;;;;3.50;1.73;;;20.10;64.10;;;;;;5054769;28;20441;-88
2023/04/14 07:02:57;;;;;;;1.70;1.20;;;20.10;64.10;;;;;;5054926;28;20533;-88
2023/04/14 07:05:24;;;;;;;1.77;1.33;;;20.20;64.10;;;;;;5054129;28;20445;-87
2023/04/14 07:07:51;;;;;;;1.90;1.30;;;20.10;62.80;;;;;;5053737;28;20437;-87
2023/04/14 07:10:17;;;;;;;1.93;1.30;;;20.10;62.30;;;;;;5053618;28;20540;-88
2023/04/14 07:12:44;;;;;;;2.73;1.20;;;20.10;62.40;;;;;;5054605;28;20442;-88
2023/04/14 07:15:13;;;;;;;2.47;1.23;;;20.10;62.50;;;;;;5054121;28;20788;-86
2023/04/14 07:17:39;;;;;;;3.40;1.10;;;20.10;62.50;;;;;;5053859;28;20546;-87
2023/04/14 07:20:09;;;;;;;1.87;1.40;;;20.10;62.30;;;;;;5054510;28;20809;-93
2023/04/14 07:22:36;;;;;;;1.93;1.37;;;20.20;62.90;;;;;;5056317;28;20446;-94
2023/04/14 07:25:03;;;;;;;1.20;0.90;;;20.20;63.20;;;;;;5061340;28;20516;-95
2023/04/14 07:27:30;;;;;;;2.73;1.20;;;20.20;63.20;;;;;;5056357;28;20457;-96
2023/04/14 07:29:57;;;;;;;3.70;1.77;;;20.30;63.40;;;;;;5059553;28;20453;-92
2023/04/14 07:32:24;;;;;;;2.53;1.30;;;20.20;63.20;;;;;;5062763;28;20421;-92
2023/04/14 07:34:51;;;;;;;1.80;1.07;;;20.30;63.50;;;;;;5078391;28;20449;-92
2023/04/14 07:37:19;;;;;;;2.27;1.30;;;20.30;63.50;;;;;;5064096;28;20509;-89
2023/04/14 07:39:46;;;;;;;2.27;1.20;;;20.30;63.60;;;;;;5053895;28;20482;-94
2023/04/14 07:43:01;;;;;;;2.73;1.33;;;20.30;63.60;;;;;;5053941;28;20452;-90
2023/04/14 07:45:27;;;;;;;4.40;1.47;;;20.30;63.70;;;;;;5054506;28;20437;-88
2023/04/14 07:47:54;;;;;;;2.83;1.20;;;20.30;63.80;;;;;;5057482;28;20437;-86
2023/04/14 07:50:21;;;;;;;4.17;1.40;;;20.40;64.00;;;;;;5043063;28;20446;-88
2023/04/14 07:52:49;;;;;;;7.33;1.30;;;20.30;64.00;;;;;;5038372;28;20529;-87
2023/04/14 07:55:17;;;;;;;4.53;1.43;;;20.40;65.20;;;;;;5037631;28;20941;-87
2023/04/14 07:57:44;;;;;;;3.73;0.90;;;20.30;64.30;;;;;;5037581;28;20493;-88
2023/04/14 08:00:12;;;;;;;3.20;1.40;;;20.40;64.70;;;;;;5037571;28;20500;-88
2023/04/14 08:02:39;;;;;;;1.80;1.10;;;20.40;64.70;;;;;;5037323;28;20442;-87
2023/04/14 08:05:07;;;;;;;2.63;1.20;;;20.40;64.90;;;;;;5037206;28;20444;-89
2023/04/14 08:07:34;;;;;;;1.40;1.00;;;20.40;65.00;;;;;;5037788;28;20453;-89
2023/04/14 08:10:02;;;;;;;2.10;1.10;;;20.50;65.20;;;;;;5037083;28;20448;-89
2023/04/14 08:12:29;;;;;;;2.90;1.47;;;20.50;65.10;;;;;;5037498;28;20446;-87
2023/04/14 08:14:56;;;;;;;2.53;1.00;;;20.50;65.00;;;;;;5037180;28;20442;-88
2023/04/14 08:17:23;;;;;;;1.60;1.10;;;20.50;65.00;;;;;;5037176;28;20481;-87
2023/04/14 08:19:50;;;;;;;1.70;1.27;;;20.60;65.20;;;;;;5037027;28;20939;-85
2023/04/14 08:22:17;;;;;;;3.97;1.37;;;20.60;65.30;;;;;;5036772;28;20541;-86
2023/04/14 08:24:44;;;;;;;4.10;1.77;;;20.70;66.20;;;;;;5037147;28;20449;-89
2023/04/14 08:27:12;;;;;;;2.77;1.03;;;20.70;65.40;;;;;;5037003;28;20474;-87
2023/04/14 08:29:39;;;;;;;1.70;1.20;;;20.70;65.30;;;;;;5036710;28;20488;-89
2023/04/14 08:32:06;;;;;;;2.10;1.17;;;20.70;65.30;;;;;;5036606;28;20449;-88
2023/04/14 08:34:33;;;;;;;1.60;1.30;;;20.80;65.50;;;;;;5036965;28;20442;-92
2023/04/14 08:37:00;;;;;;;1.40;1.10;;;20.80;65.60;;;;;;5037157;28;20485;-89
2023/04/14 08:39:27;;;;;;;7.30;1.13;;;20.80;65.60;;;;;;5037278;28;20446;-90
2023/04/14 08:41:55;;;;;;;1.10;0.90;;;20.80;65.60;;;;;;5037601;28;20457;-89
2023/04/14 08:44:24;;;;;;;2.30;1.13;;;20.90;65.70;;;;;;5037592;28;20450;-86
2023/04/14 08:46:52;;;;;;;2.13;1.20;;;21.00;65.80;;;;;;5036617;28;20450;-86
2023/04/14 08:49:28;;;;;;;2.27;1.10;;;20.90;65.70;;;;;;5036938;28;20485;-89
2023/04/14 08:51:57;;;;;;;1.40;0.90;;;21.00;65.80;;;;;;5036981;28;20464;-87
2023/04/14 08:54:24;;;;;;;1.97;1.03;;;21.00;65.90;;;;;;5036102;28;20449;-87
2023/04/14 08:56:52;;;;;;;1.70;1.00;;;21.00;65.80;;;;;;5035976;28;20941;-89
2023/04/14 08:59:18;;;;;;;1.77;1.00;;;21.10;65.80;;;;;;5036450;28;20443;-86
2023/04/14 09:01:47;;;;;;;1.03;0.90;;;21.10;65.80;;;;;;5036550;28;20812;-87
2023/04/14 09:04:15;;;;;;;1.93;1.00;;;21.20;65.90;;;;;;5036817;28;20456;-87
2023/04/14 09:06:42;;;;;;;1.80;1.10;;;21.20;66.00;;;;;;5042501;28;20462;-88
2023/04/14 09:09:09;;;;;;;2.40;1.10;;;21.20;66.00;;;;;;5037943;28;20453;-87
2023/04/14 09:11:38;;;;;;;1.43;1.10;;;21.20;66.10;;;;;;5039788;28;20442;-86
2023/04/14 09:14:08;;;;;;;1.20;0.90;;;21.30;66.10;;;;;;5041485;28;20478;-88
2023/04/14 09:16:37;;;;;;;3.03;1.23;;;21.30;66.10;;;;;;5041863;28;20450;-89
2023/04/14 09:19:06;;;;;;;2.90;1.13;;;21.50;66.30;;;;;;5040237;28;20504;-90
2023/04/14 09:21:33;;;;;;;1.50;1.10;;;21.30;65.80;;;;;;5040335;28;20780;-90
2023/04/14 09:24:00;;;;;;;2.70;1.10;;;21.30;65.70;;;;;;5041238;28;20454;-90
2023/04/14 09:26:29;;;;;;;2.63;1.00;;;21.40;65.80;;;;;;5041002;28;20776;-90
2023/04/14 09:28:59;;;;;;;1.70;1.17;;;21.50;66.10;;;;;;5042829;28;20474;-91
2023/04/14 09:31:27;;;;;;;3.33;1.50;;;21.50;66.10;;;;;;5041616;28;20434;-92
2023/04/14 09:33:54;;;;;;;3.63;1.20;;;21.60;66.20;;;;;;5040957;28;20446;-88
2023/04/14 09:36:23;;;;;;;2.00;1.07;;;21.60;65.90;;;;;;5039814;28;20505;-90
2023/04/14 09:38:51;;;;;;;1.30;0.90;;;21.70;66.30;;;;;;5040110;28;20850;-88
2023/04/14 09:41:20;;;;;;;4.40;1.10;;;21.70;66.20;;;;;;5039339;28;20481;-89
2023/04/14 09:44:07;;;;;;;1.50;1.00;;;21.70;66.30;;;;;;5040342;28;20964;-88
2023/04/14 09:46:33;;;;;;;1.70;1.10;;;21.80;66.40;;;;;;5038950;28;20449;-88
2023/04/14 09:49:02;;;;;;;1.50;1.00;;;21.80;66.40;;;;;;5039306;28;20913;-87
2023/04/14 09:51:49;;;;;;;2.47;1.30;;;21.90;66.50;;;;;;5041264;28;20450;-92
2023/04/14 09:54:24;;;;;;;1.43;0.90;;;21.90;66.50;;;;;;5041674;28;20773;-89
2023/04/14 09:57:04;;;;;;;2.23;1.27;;;21.90;66.40;;;;;;5037750;28;20439;-89
2023/04/14 09:59:34;;;;;;;2.07;1.10;;;21.90;66.30;;;;;;5039002;28;20442;-89
2023/04/14 10:02:05;;;;;;;2.80;1.10;;;21.80;66.30;;;;;;5039951;28;20442;-89
2023/04/14 10:04:31;;;;;;;1.70;0.90;;;22.00;66.70;;;;;;5039941;28;20457;-90
2023/04/14 10:07:01;;;;;;;1.63;1.10;;;21.90;66.60;;;;;;5039950;28;20446;-89
2023/04/14 10:09:29;;;;;;;1.77;1.10;;;21.90;66.50;;;;;;5037765;28;20959;-89
2023/04/14 10:12:10;;;;;;;2.30;1.10;;;21.90;66.20;;;;;;5039265;28;20477;-88
2023/04/14 10:14:38;;;;;;;5.83;1.23;;;21.90;66.00;;;;;;5052883;28;20449;-88
2023/04/14 10:17:05;;;;;;;4.30;1.17;;;21.90;66.40;;;;;;5057530;28;20442;-87
2023/04/14 10:19:32;;;;;;;1.73;1.20;;;21.90;66.50;;;;;;5040890;28;20528;-89
2023/04/14 10:22:01;;;;;;;1.93;1.13;;;22.00;66.60;;;;;;5038718;28;20476;-88
2023/04/14 10:24:30;;;;;;;1.40;1.00;;;22.00;66.50;;;;;;5044169;28;20441;-87
2023/04/14 10:27:01;;;;;;;1.20;0.90;;;22.20;66.50;;;;;;5037836;28;20507;-89
2023/04/14 10:29:29;;;;;;;1.43;1.30;;;22.20;66.30;;;;;;5034649;28;20513;-89
2023/04/14 10:32:01;;;;;;;2.43;1.10;;;22.20;66.40;;;;;;5034714;28;20450;-89
2023/04/14 10:34:32;;;;;;;1.30;1.10;;;22.20;66.50;;;;;;5034473;28;20490;-89
2023/04/14 10:37:12;;;;;;;2.30;1.00;;;22.20;67.30;;;;;;5034661;28;20442;-89
2023/04/14 10:39:39;;;;;;;5.33;1.27;;;22.30;66.60;;;;;;5034323;28;20493;-89
2023/04/14 10:42:06;;;;;;;2.60;0.90;;;22.30;66.30;;;;;;5034453;28;20451;-89
2023/04/14 10:44:34;;;;;;;2.70;1.23;;;22.40;66.20;;;;;;5034391;28;20443;-90
2023/04/14 10:47:03;;;;;;;3.67;1.50;;;22.30;66.30;;;;;;5034533;28;20592;-90
2023/04/14 10:49:31;;;;;;;1.80;1.20;;;22.40;66.40;;;;;;5034207;28;20933;-90
2023/04/14 10:52:00;;;;;;;2.30;0.90;;;22.40;66.30;;;;;;5034194;28;20941;-90
2023/04/14 10:54:28;;;;;;;2.77;1.73;;;22.50;66.60;;;;;;5034381;28;20438;-89
2023/04/14 10:57:11;;;;;;;1.57;0.97;;;22.30;66.40;;;;;;5034017;28;20445;-89
2023/04/14 10:59:54;;;;;;;1.40;1.10;;;22.30;66.70;;;;;;5034030;28;21038;-90
2023/04/14 11:02:25;;;;;;;4.63;1.00;;;22.30;66.60;;;;;;5034354;28;20449;-89
2023/04/14 11:05:03;;;;;;;3.10;1.00;;;22.30;66.60;;;;;;5033964;28;20465;-89
2023/04/14 11:07:31;;;;;;;2.57;1.20;;;22.30;66.60;;;;;;5034078;28;20525;-89
2023/04/14 11:10:14;;;;;;;2.53;1.37;;;22.30;66.30;;;;;;5034208;28;20500;-88
2023/04/14 11:12:43;;;;;;;2.23;0.90;;;22.30;66.40;;;;;;5034021;28;20533;-89
2023/04/14 11:15:10;;;;;;;1.77;1.00;;;22.30;66.40;;;;;;5033968;28;20434;-89
2023/04/14 11:17:38;;;;;;;5.20;1.20;;;22.20;66.40;;;;;;5033928;28;20434;-89
2023/04/14 11:20:14;;;;;;;1.53;1.07;;;22.20;66.30;;;;;;5033671;28;20447;-88
2023/04/14 11:22:44;;;;;;;1.40;1.17;;;22.20;66.40;;;;;;5033833;28;20445;-88
2023/04/14 11:25:14;;;;;;;3.47;1.40;;;22.20;66.60;;;;;;5033827;28;20438;-88
2023/04/14 11:27:41;;;;;;;1.43;1.10;;;22.10;66.80;;;;;;5034042;28;20469;-88
2023/04/14 11:30:26;;;;;;;1.20;0.90;;;22.30;67.20;;;;;;5033629;28;20442;-88
2023/04/14 11:32:56;;;;;;;1.30;0.90;;;22.30;67.20;;;;;;5033679;28;20430;-88
2023/04/14 11:35:26;;;;;;;2.37;1.30;;;22.30;67.40;;;;;;5033655;28;20945;-89
2023/04/14 11:37:54;;;;;;;1.30;1.20;;;22.40;67.40;;;;;;5034282;28;20886;-89
2023/04/14 11:40:26;;;;;;;1.40;1.10;;;22.50;67.40;;;;;;5033576;28;21007;-89
2023/04/14 11:42:55;;;;;;;2.40;1.03;;;22.40;67.30;;;;;;5033823;28;20451;-89
2023/04/14 11:45:23;;;;;;;3.70;1.47;;;22.40;67.40;;;;;;5033886;28;20450;-89
2023/04/14 11:48:00;;;;;;;1.37;0.80;;;22.50;67.60;;;;;;5033630;28;20445;-89
2023/04/14 11:50:30;;;;;;;3.53;1.10;;;22.50;67.70;;;;;;5033737;28;20525;-89
2023/04/14 11:52:58;;;;;;;1.57;1.30;;;22.50;67.70;;;;;;5033746;28;20493;-90
2023/04/14 11:55:27;;;;;;;1.50;1.03;;;22.50;66.60;;;;;;5033741;28;20496;-86
2023/04/14 11:57:54;;;;;;;1.57;1.00;;;22.50;66.20;;;;;;5033296;28;20454;-90
2023/04/14 12:00:21;;;;;;;1.20;0.90;;;22.40;65.90;;;;;;5033622;28;20458;-90
2023/04/14 12:02:49;;;;;;;2.67;1.20;;;22.40;65.50;;;;;;5033440;28;20539;-90
2023/04/14 12:05:21;;;;;;;2.70;1.03;;;22.30;65.70;;;;;;5033610;28;20537;-88
2023/04/14 12:07:48;;;;;;;5.23;1.20;;;22.30;65.60;;;;;;5033290;28;20443;-89
2023/04/14 12:10:15;;;;;;;5.33;1.40;;;22.30;65.40;;;;;;5033417;28;20452;-90
2023/04/14 12:12:43;;;;;;;4.07;1.10;;;22.30;65.40;;;;;;5033344;28;20439;-89
2023/04/14 12:15:12;;;;;;;1.90;1.10;;;22.30;65.20;;;;;;5033268;28;21033;-88
2023/04/14 12:17:40;;;;;;;6.03;1.30;;;22.20;65.00;;;;;;5033434;28;20453;-89
2023/04/14 12:20:14;;;;;;;2.57;1.27;;;22.30;64.90;;;;;;5033384;28;20493;-89
2023/04/14 12:22:41;;;;;;;2.60;1.30;;;22.20;64.40;;;;;;5033409;28;20450;-89
2023/04/14 12:25:11;;;;;;;3.40;1.53;;;22.20;64.20;;;;;;5033382;28;20447;-89
2023/04/14 12:27:38;;;;;;;5.53;1.47;;;22.20;58.60;;;;;;5035749;28;20455;-91
2023/04/14 12:30:22;;;;;;;5.50;1.30;;;22.10;62.30;;;;;;5045078;28;20448;-91
2023/04/14 12:32:49;;;;;;;1.63;1.37;;;22.20;62.80;;;;;;5036408;28;20454;-91
2023/04/14 12:35:21;;;;;;;1.80;1.30;;;22.10;62.60;;;;;;5036986;28;20446;-88
2023/04/14 12:37:49;;;;;;;1.87;1.10;;;22.00;62.50;;;;;;5036753;28;20442;-92
2023/04/14 12:40:16;;;;;;;3.27;1.57;;;22.00;62.60;;;;;;5037227;28;20490;-91
2023/04/14 12:42:45;;;;;;;3.77;1.20;;;22.10;63.00;;;;;;5037629;28;20446;-91
2023/04/14 12:45:12;;;;;;;2.50;1.47;;;22.10;63.10;;;;;;5044506;28;20939;-90
2023/04/14 12:47:41;;;;;;;11.63;1.83;;;22.00;63.20;;;;;;5042699;28;20442;-91
2023/04/14 12:50:47;;;;;;;5.63;1.80;;;22.00;63.30;;;;;;5046920;28;20489;-88
2023/04/14 12:53:24;;;;;;;2.03;1.20;;;22.00;63.60;;;;;;5055777;28;20528;-88
2023/04/14 12:56:07;;;;;;;2.60;1.10;;;22.00;63.60;;;;;;5041318;28;20536;-86
2023/04/14 12:58:35;;;;;;;1.90;1.40;;;22.00;63.80;;;;;;5036367;28;20488;-91
2023/04/14 13:01:02;;;;;;;3.97;1.27;;;22.00;63.80;;;;;;5037928;28;20442;-91